Phineas Banning — WCT8646 — position and weather

sailwx.info

Track history (hours):
 
Tides and Currents Weather Stations Pressure Air Temp Water Temp Dewpoint Dewpoint Depression Visibility Wind Speed Wind Dir Waves Ship Positions

Phineas Banning

Owner: LOS ANGELES, PORT OF, SAN PEDRO, CA. More information available from US FCC via Universal Licensing System and Coast Guard Vessel Documentation Center.

Last reported at 2018-Feb-24 18:00 UTC. Time now 2018-Feb-24 18:10 UTC.
Position N 33°43' W 118°16'.

Length 13 m.

Type: Pilot. MMSI: 367044560.

Date/timePositionNaut miles runAvg speedWind from/ knotsBaromVisibWave heightAir tempDewpointWater temp
2018-Feb-24 18:00N 33°43' W 118°16'0 0.0
2018-Feb-24 17:30N 33°43' W 118°16'0 0.0
2018-Feb-24 17:00N 33°43' W 118°16'0 0.0
2018-Feb-24 16:30N 33°43' W 118°16'0 0.0
2018-Feb-24 16:00N 33°43' W 118°16'0 0.0
2018-Feb-24 15:30N 33°43' W 118°16'0 0.0
2018-Feb-24 15:00N 33°43' W 118°16'0 0.0
2018-Feb-24 14:29N 33°43' W 118°16'0 0.0
2018-Feb-24 13:59N 33°43' W 118°16'0 0.0
2018-Feb-24 13:29N 33°43' W 118°16'0 0.0
2018-Feb-24 12:56N 33°43' W 118°16'0 0.0
2018-Feb-24 12:29N 33°43' W 118°16'0 0.0
2018-Feb-24 11:59N 33°43' W 118°16'0 0.0
2018-Feb-24 11:15N 33°43' W 118°16'0 0.0
2018-Feb-24 10:50N 33°43' W 118°16'0 0.0
2018-Feb-24 10:00N 33°43' W 118°16'0 0.0
2018-Feb-24 09:23N 33°43' W 118°16'0 0.0
2018-Feb-24 08:16N 33°43' W 118°16'0 0.0
2018-Feb-24 07:53N 33°43' W 118°16'0 0.0
2018-Feb-24 07:16N 33°43' W 118°16'0 0.0
2018-Feb-24 06:58N 33°43' W 118°16'0 0.0
2018-Feb-24 06:12N 33°43' W 118°16'0 0.0
2018-Feb-24 04:09N 33°43' W 118°16'0 0.0
2018-Feb-24 03:41N 33°43' W 118°16'0 0.0
2018-Feb-24 03:11N 33°43' W 118°16'0 0.0
2018-Feb-24 02:52N 33°43' W 118°16'0 0.0
2018-Feb-24 02:29N 33°43' W 118°16'0 0.0
2018-Feb-24 01:54N 33°43' W 118°16'0 0.0
2018-Feb-24 01:30N 33°43' W 118°16'0 0.0
2018-Feb-24 01:00N 33°43' W 118°16'0 0.0
2018-Feb-24 00:30N 33°43' W 118°16'0 0.0
2018-Feb-24 00:00N 33°43' W 118°16'0 0.0
2018-Feb-23 23:30N 33°43' W 118°16'0 0.0
2018-Feb-23 23:00N 33°43' W 118°16'0 0.0
2018-Feb-23 22:30N 33°43' W 118°16'0 0.0
2018-Feb-23 22:00N 33°43' W 118°16'0 0.0
2018-Feb-23 21:30N 33°43' W 118°16'0 0.0
2018-Feb-23 21:00N 33°43' W 118°16'0 0.0
2018-Feb-23 20:30N 33°43' W 118°16'0 0.0
2018-Feb-23 20:00N 33°43' W 118°16'0 0.0
2018-Feb-23 19:30N 33°43' W 118°16'0 0.0
2018-Feb-23 19:00N 33°43' W 118°16'0 0.0
2018-Feb-23 18:30N 33°43' W 118°16'0 0.0
2018-Feb-23 18:00N 33°43' W 118°16'0 0.0
2018-Feb-23 17:30N 33°43' W 118°16'0 0.0
2018-Feb-23 17:00N 33°43' W 118°16'0 0.0
2018-Feb-23 16:30N 33°43' W 118°16'0 0.0
2018-Feb-23 16:00N 33°43' W 118°16'0 0.0
2018-Feb-23 15:30N 33°43' W 118°16'0 0.0
2018-Feb-23 15:00N 33°43' W 118°16'0 0.0
2018-Feb-23 14:30N 33°43' W 118°16'0 0.0
2018-Feb-23 13:41N 33°43' W 118°16'1 4.7
2018-Feb-23 13:26N 33°43' W 118°15'1 1.2
2018-Feb-23 12:29N 33°43' W 118°16'1 2.1
2018-Feb-23 12:00N 33°43' W 118°15'1 1.9
2018-Feb-23 11:30N 33°43' W 118°16'0 0.0
2018-Feb-23 10:57N 33°43' W 118°16'0 0.0
2018-Feb-23 10:24N 33°43' W 118°16'0 0.0
2018-Feb-23 09:55N 33°43' W 118°16'0 0.1
2018-Feb-23 06:44N 33°43' W 118°16'2 0.8
2018-Feb-23 04:03N 33°41' W 118°15'1 6.7
2018-Feb-23 03:50N 33°43' W 118°15'0 0.3
2018-Feb-23 03:24N 33°43' W 118°15'1 1.3
2018-Feb-23 02:39N 33°43' W 118°16'0 0.6
2018-Feb-23 02:13N 33°43' W 118°16'0 0.9
2018-Feb-23 02:00N 33°43' W 118°16'0 0.5
2018-Feb-23 01:30N 33°43' W 118°16'0 0.6
2018-Feb-23 01:00N 33°43' W 118°16'0 0.0
2018-Feb-23 00:30N 33°43' W 118°16'0 0.0
2018-Feb-23 00:00N 33°43' W 118°16'0 0.0
2018-Feb-22 23:30N 33°43' W 118°16'0 0.0
2018-Feb-22 23:00N 33°43' W 118°16'3 5.1
2018-Feb-22 22:31N 33°41' W 118°15'3 4.8
2018-Feb-22 21:59N 33°43' W 118°16'0 0.0
2018-Feb-22 21:30N 33°43' W 118°16'0 0.0
2018-Feb-22 21:00N 33°43' W 118°16'0 0.0
2018-Feb-22 20:30N 33°43' W 118°16'0 0.0
2018-Feb-22 20:00N 33°43' W 118°16'0 0.0
2018-Feb-22 19:30N 33°43' W 118°16'0 0.0
2018-Feb-22 19:00N 33°43' W 118°16'1 1.1
2018-Feb-22 18:30N 33°44' W 118°17'1 1.1
2018-Feb-22 18:00N 33°43' W 118°16'0 0.0
2018-Feb-22 17:30N 33°43' W 118°16'0 0.0
2018-Feb-22 16:48N 33°43' W 118°16'0 0.0
2018-Feb-22 16:30N 33°43' W 118°16'0 0.0
2018-Feb-22 16:00N 33°43' W 118°16'0 0.0
2018-Feb-22 15:30N 33°43' W 118°16'1 1.4
2018-Feb-22 15:00N 33°43' W 118°16'1 1.4
2018-Feb-22 14:28N 33°43' W 118°16'0 0.0
2018-Feb-22 13:32N 33°43' W 118°16'010.7
2018-Feb-22 13:30N 33°43' W 118°16'1 2.5
2018-Feb-22 13:00N 33°42' W 118°15'1 1.8
2018-Feb-22 12:13N 33°43' W 118°16'2 4.4
2018-Feb-22 11:48N 33°42' W 118°15'2 4.9
2018-Feb-22 11:23N 33°43' W 118°16'0 0.0
2018-Feb-22 10:59N 33°43' W 118°16'0 0.0
2018-Feb-22 09:05N 33°43' W 118°16'0 0.0
2018-Feb-22 04:12N 33°43' W 118°16'0 0.0
2018-Feb-22 02:01N 33°43' W 118°16'0 9.3
2018-Feb-22 01:59N 33°43' W 118°16'0 0.8
2018-Feb-22 01:28N 33°43' W 118°16'0 0.0
2018-Feb-22 01:00N 33°43' W 118°16'0 0.0
2018-Feb-22 00:30N 33°43' W 118°16'0 0.0
2018-Feb-22 00:00N 33°43' W 118°16'0 0.0
2018-Feb-21 23:30N 33°43' W 118°16'0 0.0
2018-Feb-21 23:00N 33°43' W 118°16'0 0.0
2018-Feb-21 22:30N 33°43' W 118°16'2 4.2
2018-Feb-21 22:00N 33°42' W 118°15'2 4.2
2018-Feb-21 21:31N 33°43' W 118°16'0 0.0
2018-Feb-21 21:00N 33°43' W 118°16'510.7
2018-Feb-21 20:30N 33°38' W 118°14'510.3
2018-Feb-21 19:59N 33°43' W 118°16'0 0.0
2018-Feb-21 19:30N 33°43' W 118°16'0 0.0
2018-Feb-21 18:58N 33°43' W 118°16'0 0.0
2018-Feb-21 18:30N 33°43' W 118°16'0 0.0
2018-Feb-21 18:00N 33°43' W 118°16'0 0.0
2018-Feb-21 17:30N 33°43' W 118°16'0 0.0
2018-Feb-21 17:00N 33°43' W 118°16'0 0.0
2018-Feb-21 16:30N 33°43' W 118°16'0 0.0
2018-Feb-21 16:00N 33°43' W 118°16'0 0.0
2018-Feb-21 15:30N 33°43' W 118°16'0 0.0
2018-Feb-21 15:00N 33°43' W 118°16'0 0.0
2018-Feb-21 14:30N 33°43' W 118°16'1 2.1
2018-Feb-21 14:00N 33°43' W 118°15'0 0.0
2018-Feb-21 13:30N 33°43' W 118°15'1 0.0
2018-Feb-21 02:20N 33°43' W 118°16'1 2.7
2018-Feb-21 02:00N 33°42' W 118°15'1 2.3
2018-Feb-21 01:30N 33°43' W 118°16'1 2.0
2018-Feb-21 01:00N 33°43' W 118°15'1 2.5
2018-Feb-21 00:30N 33°43' W 118°16'1 1.3
2018-Feb-21 00:00N 33°43' W 118°16'1 1.3
2018-Feb-20 23:30N 33°43' W 118°16'0 0.0
2018-Feb-20 23:00N 33°43' W 118°16'3 6.0
2018-Feb-20 22:31N 33°41' W 118°14'1 1.5
2018-Feb-20 22:01N 33°40' W 118°14'4 7.3
2018-Feb-20 21:30N 33°43' W 118°16'0 0.0
2018-Feb-20 21:00N 33°43' W 118°16'0 0.0
2018-Feb-20 20:29N 33°43' W 118°16'0 0.0
2018-Feb-20 20:00N 33°43' W 118°16'0 0.0
2018-Feb-20 19:30N 33°43' W 118°16'0 0.0
2018-Feb-20 19:00N 33°43' W 118°16'0 0.0
2018-Feb-20 18:30N 33°43' W 118°16'0 0.0
2018-Feb-20 18:00N 33°43' W 118°16'0 0.0
2018-Feb-20 17:30N 33°43' W 118°16'0 0.0
2018-Feb-20 17:00N 33°43' W 118°16'0 0.0
2018-Feb-20 16:30N 33°43' W 118°16'0 0.0
2018-Feb-20 16:00N 33°43' W 118°16'0 0.0
2018-Feb-20 15:30N 33°43' W 118°16'0 0.0
2018-Feb-20 15:00N 33°43' W 118°16'0 0.0
2018-Feb-20 14:30N 33°43' W 118°16'0 0.0
2018-Feb-20 13:53N 33°43' W 118°16'0 0.0
2018-Feb-20 13:30N 33°43' W 118°16'0 0.0
2018-Feb-20 13:00N 33°43' W 118°16'0 0.0
2018-Feb-20 12:22N 33°43' W 118°16'0 0.0
2018-Feb-20 02:11N 33°43' W 118°16'0 0.0
2018-Feb-20 01:48N 33°43' W 118°16'0 0.0
2018-Feb-20 01:30N 33°43' W 118°16'0 0.0
2018-Feb-20 01:00N 33°43' W 118°16'0 0.0
2018-Feb-20 00:30N 33°43' W 118°16'0 0.0
2018-Feb-20 00:00N 33°43' W 118°16'0 0.0
2018-Feb-19 23:30N 33°43' W 118°16'0 0.0
2018-Feb-19 23:00N 33°43' W 118°16'0 0.0
2018-Feb-19 22:30N 33°43' W 118°16'0 0.0
2018-Feb-19 22:00N 33°43' W 118°16'0 0.0
2018-Feb-19 21:30N 33°43' W 118°16'0 0.0
2018-Feb-19 21:00N 33°43' W 118°16'0 0.0
2018-Feb-19 20:30N 33°43' W 118°16'0 0.0
2018-Feb-19 20:00N 33°43' W 118°16'0 0.0
2018-Feb-19 19:30N 33°43' W 118°16'0 0.0
2018-Feb-19 19:00N 33°43' W 118°16'0 0.0
2018-Feb-19 18:30N 33°43' W 118°16'0 0.0
2018-Feb-19 18:00N 33°43' W 118°16'0 0.0
2018-Feb-19 17:30N 33°43' W 118°16'0 0.0
2018-Feb-19 17:00N 33°43' W 118°16'0 0.0
2018-Feb-19 16:30N 33°43' W 118°16'0 0.0
2018-Feb-19 16:00N 33°43' W 118°16'0 0.0
2018-Feb-19 15:30N 33°43' W 118°16'0 0.0
2018-Feb-19 15:00N 33°43' W 118°16'0 0.0
2018-Feb-19 14:30N 33°43' W 118°16'0 0.0
2018-Feb-19 13:54N 33°43' W 118°16'0 0.0
2018-Feb-19 12:50N 33°43' W 118°16'0 0.0
2018-Feb-19 12:26N 33°43' W 118°16'0 0.0
2018-Feb-19 11:22N 33°43' W 118°16'0 0.0
2018-Feb-19 10:49N 33°43' W 118°16'0 0.0
2018-Feb-19 10:22N 33°43' W 118°16'0 0.0
2018-Feb-19 09:53N 33°43' W 118°16'0 0.0
2018-Feb-19 09:28N 33°43' W 118°16'0 0.0
2018-Feb-19 08:58N 33°43' W 118°16'0 0.0
2018-Feb-19 08:21N 33°43' W 118°16'0 0.0
2018-Feb-19 07:31N 33°43' W 118°16'0 0.0
2018-Feb-19 07:22N 33°43' W 118°16'0 0.0
2018-Feb-19 05:52N 33°43' W 118°16'0 0.0
2018-Feb-19 05:25N 33°43' W 118°16'0 0.0
2018-Feb-19 04:57N 33°43' W 118°16'0 0.0
2018-Feb-19 04:29N 33°43' W 118°16'0 0.0
2018-Feb-19 03:50N 33°43' W 118°16'0 0.0
2018-Feb-19 03:28N 33°43' W 118°16'0 0.0
2018-Feb-19 02:29N 33°43' W 118°16'0 0.0
2018-Feb-19 01:57N 33°43' W 118°16'0 0.0
2018-Feb-19 01:30N 33°43' W 118°16'0 0.0
2018-Feb-19 01:00N 33°43' W 118°16'0 0.0
2018-Feb-19 00:30N 33°43' W 118°16'0 0.0
2018-Feb-19 00:00N 33°43' W 118°16'0 0.0
2018-Feb-18 23:30N 33°43' W 118°16'0 0.0
2018-Feb-18 23:00N 33°43' W 118°16'0 0.0
2018-Feb-18 22:30N 33°43' W 118°16'0 0.0
2018-Feb-18 22:00N 33°43' W 118°16'0 0.0
2018-Feb-18 21:30N 33°43' W 118°16'0 0.0
2018-Feb-18 21:00N 33°43' W 118°16'0 0.0
2018-Feb-18 20:30N 33°43' W 118°16'0 0.0
2018-Feb-18 20:00N 33°43' W 118°16'0 0.0
2018-Feb-18 19:30N 33°43' W 118°16'0 0.0
2018-Feb-18 19:00N 33°43' W 118°16'0 0.0
2018-Feb-18 18:30N 33°43' W 118°16'0 0.0
2018-Feb-18 18:00N 33°43' W 118°16'0 0.0
2018-Feb-18 17:30N 33°43' W 118°16'0 0.0
2018-Feb-18 17:00N 33°43' W 118°16'0 0.0
2018-Feb-18 16:30N 33°43' W 118°16'0 0.0
2018-Feb-18 16:00N 33°43' W 118°16'0 0.0
2018-Feb-18 15:30N 33°43' W 118°16'0 0.0
2018-Feb-18 15:00N 33°43' W 118°16'0 0.0
2018-Feb-18 14:30N 33°43' W 118°16'0 0.0
2018-Feb-18 14:00N 33°43' W 118°16'0 0.0
2018-Feb-18 13:26N 33°43' W 118°16'0 0.0
2018-Feb-18 13:00N 33°43' W 118°16'0 0.0
2018-Feb-18 12:26N 33°43' W 118°16'0 0.0
2018-Feb-18 11:57N 33°43' W 118°16'0 0.0
2018-Feb-18 11:28N 33°43' W 118°16'0 0.0
2018-Feb-18 10:46N 33°43' W 118°16'0 0.0
2018-Feb-18 10:10N 33°43' W 118°16'0 0.0
2018-Feb-18 09:54N 33°43' W 118°16'0 0.0
2018-Feb-18 09:19N 33°43' W 118°16'0 0.0
2018-Feb-18 08:47N 33°43' W 118°16'0 0.0
2018-Feb-18 08:19N 33°43' W 118°16'0 0.0
2018-Feb-18 08:00N 33°43' W 118°16'0 0.0
2018-Feb-18 06:01N 33°43' W 118°16'0 0.0
2018-Feb-18 05:42N 33°43' W 118°16'0 0.0
2018-Feb-18 05:20N 33°43' W 118°16'0 0.0
2018-Feb-18 04:15N 33°43' W 118°16'0 0.0
2018-Feb-18 03:58N 33°43' W 118°16'0 0.0
2018-Feb-18 01:52N 33°43' W 118°16'0 0.0
2018-Feb-18 01:30N 33°43' W 118°16'0 0.0
2018-Feb-18 01:00N 33°43' W 118°16'0 0.0
2018-Feb-18 00:30N 33°43' W 118°16'0 0.0
2018-Feb-17 23:59N 33°43' W 118°16'0 0.0
2018-Feb-17 23:30N 33°43' W 118°16'0 0.0
2018-Feb-17 23:00N 33°43' W 118°16'0 0.0
2018-Feb-17 22:30N 33°43' W 118°16'0 0.0
2018-Feb-17 22:00N 33°43' W 118°16'0 0.0
2018-Feb-17 21:30N 33°43' W 118°16'0 0.0
2018-Feb-17 21:00N 33°43' W 118°16'0 0.0
2018-Feb-17 20:30N 33°43' W 118°16'0 0.0
2018-Feb-17 20:00N 33°43' W 118°16'0 0.0
2018-Feb-17 19:30N 33°43' W 118°16'0 0.0
2018-Feb-17 19:00N 33°43' W 118°16'0 0.0
2018-Feb-17 18:30N 33°43' W 118°16'0 0.0
2018-Feb-17 18:00N 33°43' W 118°16'0 0.0
2018-Feb-17 17:30N 33°43' W 118°16'0 0.0
2018-Feb-17 17:00N 33°43' W 118°16'0 0.0
2018-Feb-17 16:30N 33°43' W 118°16'0 0.0
2018-Feb-17 16:00N 33°43' W 118°16'0 0.0
2018-Feb-17 15:30N 33°43' W 118°16'0 0.0
2018-Feb-17 15:00N 33°43' W 118°16'0 0.0
2018-Feb-17 14:30N 33°43' W 118°16'0 0.0
2018-Feb-17 13:51N 33°43' W 118°16'0 0.0
2018-Feb-17 13:22N 33°43' W 118°16'0 0.0
2018-Feb-17 12:58N 33°43' W 118°16'0 0.0
2018-Feb-17 12:18N 33°43' W 118°16'0 0.0
2018-Feb-17 11:52N 33°43' W 118°16'0 0.0
2018-Feb-17 11:30N 33°43' W 118°16'0 0.0
2018-Feb-17 10:45N 33°43' W 118°16'0 0.0
2018-Feb-17 10:26N 33°43' W 118°16'0 0.0
2018-Feb-17 09:47N 33°43' W 118°16'0 0.0
2018-Feb-17 09:30N 33°43' W 118°16'0 0.0
2018-Feb-17 09:00N 33°43' W 118°16'0 0.0
2018-Feb-17 05:50N 33°43' W 118°16'0 0.0
2018-Feb-17 01:50N 33°43' W 118°16'0 0.0
2018-Feb-17 01:30N 33°43' W 118°16'0 0.0
2018-Feb-17 01:00N 33°43' W 118°16'0 0.0
2018-Feb-17 00:30N 33°43' W 118°16'0 0.0
2018-Feb-17 00:00N 33°43' W 118°16'0 0.0
2018-Feb-16 23:30N 33°43' W 118°16'0 0.0
2018-Feb-16 23:00N 33°43' W 118°16'0 0.0
2018-Feb-16 22:30N 33°43' W 118°16'0 0.0
2018-Feb-16 22:00N 33°43' W 118°16'0 0.0
2018-Feb-16 21:30N 33°43' W 118°16'0 0.0
2018-Feb-16 21:00N 33°43' W 118°16'0 0.0
2018-Feb-16 20:30N 33°43' W 118°16'0 0.0
2018-Feb-16 20:00N 33°43' W 118°16'0 0.0
2018-Feb-16 19:30N 33°43' W 118°16'0 0.0
2018-Feb-16 19:00N 33°43' W 118°16'0 0.0
2018-Feb-16 18:30N 33°43' W 118°16'0 0.0
2018-Feb-16 18:00N 33°43' W 118°16'0 0.0
2018-Feb-16 17:30N 33°43' W 118°16'0 0.0
2018-Feb-16 17:00N 33°43' W 118°16'0 0.0
2018-Feb-16 16:30N 33°43' W 118°16'0 0.0
2018-Feb-16 16:00N 33°43' W 118°16'0 0.0
2018-Feb-16 15:30N 33°43' W 118°16'0 0.0
2018-Feb-16 15:00N 33°43' W 118°16'0 0.0
2018-Feb-16 14:30N 33°43' W 118°16'0 0.0
2018-Feb-16 13:41N 33°43' W 118°16'0 0.0
2018-Feb-16 06:43N 33°43' W 118°16'0 0.0
2018-Feb-16 06:15N 33°43' W 118°16'0 0.0
2018-Feb-16 05:54N 33°43' W 118°16'0 0.0
2018-Feb-16 05:30N 33°43' W 118°16'0 0.0
2018-Feb-16 04:52N 33°43' W 118°16'0 0.0
2018-Feb-16 04:30N 33°43' W 118°16'0 0.0
2018-Feb-16 04:00N 33°43' W 118°16'0 0.0
2018-Feb-16 03:12N 33°43' W 118°16'0 0.0
2018-Feb-16 02:59N 33°43' W 118°16'0 0.0
2018-Feb-16 02:27N 33°43' W 118°16'0 0.0
2018-Feb-16 01:48N 33°43' W 118°16'0 0.0
2018-Feb-16 01:30N 33°43' W 118°16'0 0.0
2018-Feb-16 01:00N 33°43' W 118°16'0 0.0
2018-Feb-16 00:30N 33°43' W 118°16'0 0.0
2018-Feb-16 00:00N 33°43' W 118°16'0 0.0
2018-Feb-15 23:30N 33°43' W 118°16'0 0.0
2018-Feb-15 23:00N 33°43' W 118°16'0 0.0
2018-Feb-15 22:30N 33°43' W 118°16'0 0.0
2018-Feb-15 22:00N 33°43' W 118°16'0 0.0
2018-Feb-15 21:30N 33°43' W 118°16'0 0.0
2018-Feb-15 21:00N 33°43' W 118°16'0 0.0
2018-Feb-15 20:30N 33°43' W 118°16'0 0.0
2018-Feb-15 20:00N 33°43' W 118°16'0 0.0
2018-Feb-15 19:30N 33°43' W 118°16'0 0.0
2018-Feb-15 19:00N 33°43' W 118°16'0 0.0
2018-Feb-15 18:28N 33°43' W 118°16'0 0.0
2018-Feb-15 18:00N 33°43' W 118°16'0 0.0
2018-Feb-15 17:30N 33°43' W 118°16'0 0.0
2018-Feb-15 17:00N 33°43' W 118°16'0 0.0
2018-Feb-15 16:30N 33°43' W 118°16'0 0.0
2018-Feb-15 15:59N 33°43' W 118°16'0 0.0
2018-Feb-15 15:30N 33°43' W 118°16'0 0.0
2018-Feb-15 15:00N 33°43' W 118°16'0 0.0
2018-Feb-15 14:30N 33°43' W 118°16'0 0.0
2018-Feb-15 14:00N 33°43' W 118°16'0 0.0
2018-Feb-15 13:30N 33°43' W 118°16'0 0.0
2018-Feb-15 12:56N 33°43' W 118°16'0 0.0
2018-Feb-15 12:21N 33°43' W 118°16'0 0.0
2018-Feb-15 12:00N 33°43' W 118°16'0 0.0
2018-Feb-15 11:28N 33°43' W 118°16'0 0.0
2018-Feb-15 10:58N 33°43' W 118°16'0 0.0
2018-Feb-15 09:45N 33°43' W 118°16'0 0.0
2018-Feb-15 09:27N 33°43' W 118°16'0 0.0
2018-Feb-15 08:57N 33°43' W 118°16'0 0.0
2018-Feb-15 08:30N 33°43' W 118°16'0 0.0
2018-Feb-15 07:51N 33°43' W 118°16'0 0.0
2018-Feb-15 07:30N 33°43' W 118°16'0 0.0
2018-Feb-15 06:03N 33°43' W 118°16'0 0.1
2018-Feb-15 06:00N 33°43' W 118°16'0 0.0
2018-Feb-15 05:29N 33°43' W 118°16'0 0.0
2018-Feb-15 04:58N 33°43' W 118°16'0 0.0
2018-Feb-15 04:30N 33°43' W 118°16'0 0.0
2018-Feb-15 04:00N 33°43' W 118°16'0 0.0
2018-Feb-15 02:56N 33°43' W 118°16'0 0.0
2018-Feb-15 02:07N 33°43' W 118°16'0 0.0
2018-Feb-15 01:48N 33°43' W 118°16'0 0.0
2018-Feb-15 01:30N 33°43' W 118°16'0 0.0
2018-Feb-15 01:00N 33°43' W 118°16'0 0.0
2018-Feb-15 00:30N 33°43' W 118°16'0 0.0
2018-Feb-15 00:00N 33°43' W 118°16'0 0.0
2018-Feb-14 23:30N 33°43' W 118°16'0 0.0
2018-Feb-14 23:00N 33°43' W 118°16'0 0.0
2018-Feb-14 22:30N 33°43' W 118°16'0 0.0
2018-Feb-14 22:00N 33°43' W 118°16'0 0.0
2018-Feb-14 21:30N 33°43' W 118°16'0 0.0
2018-Feb-14 21:00N 33°43' W 118°16'0 0.0
2018-Feb-14 20:30N 33°43' W 118°16'0 0.0
2018-Feb-14 20:00N 33°43' W 118°16'0 0.0
2018-Feb-14 19:30N 33°43' W 118°16'0 0.0
2018-Feb-14 19:00N 33°43' W 118°16'0 0.0
2018-Feb-14 18:30N 33°43' W 118°16'  
Track history (hours):
 
Tides and Currents Weather Stations Pressure Air Temp Water Temp Dewpoint Dewpoint Depression Visibility Wind Speed Wind Dir Waves Ship Positions

Phineas Banning

Owner: LOS ANGELES, PORT OF, SAN PEDRO, CA. More information available from US FCC via Universal Licensing System and Coast Guard Vessel Documentation Center.

Last reported at 2018-Feb-24 18:00 UTC. Time now 2018-Feb-24 18:10 UTC.
Position N 33°43' W 118°16'.

Length 13 m.

Type: Pilot. MMSI: 367044560.

Date/timePositionNaut miles runAvg speedWind from/ knotsBaromVisibWave heightAir tempDewpointWater temp
2018-Feb-24 18:00N 33°43' W 118°16'0 0.0
2018-Feb-24 17:30N 33°43' W 118°16'0 0.0
2018-Feb-24 17:00N 33°43' W 118°16'0 0.0
2018-Feb-24 16:30N 33°43' W 118°16'0 0.0
2018-Feb-24 16:00N 33°43' W 118°16'0 0.0
2018-Feb-24 15:30N 33°43' W 118°16'0 0.0
2018-Feb-24 15:00N 33°43' W 118°16'0 0.0
2018-Feb-24 14:29N 33°43' W 118°16'0 0.0
2018-Feb-24 13:59N 33°43' W 118°16'0 0.0
2018-Feb-24 13:29N 33°43' W 118°16'0 0.0
2018-Feb-24 12:56N 33°43' W 118°16'0 0.0
2018-Feb-24 12:29N 33°43' W 118°16'0 0.0
2018-Feb-24 11:59N 33°43' W 118°16'0 0.0
2018-Feb-24 11:15N 33°43' W 118°16'0 0.0
2018-Feb-24 10:50N 33°43' W 118°16'0 0.0
2018-Feb-24 10:00N 33°43' W 118°16'0 0.0
2018-Feb-24 09:23N 33°43' W 118°16'0 0.0
2018-Feb-24 08:16N 33°43' W 118°16'0 0.0
2018-Feb-24 07:53N 33°43' W 118°16'0 0.0
2018-Feb-24 07:16N 33°43' W 118°16'0 0.0
2018-Feb-24 06:58N 33°43' W 118°16'0 0.0
2018-Feb-24 06:12N 33°43' W 118°16'0 0.0
2018-Feb-24 04:09N 33°43' W 118°16'0 0.0
2018-Feb-24 03:41N 33°43' W 118°16'0 0.0
2018-Feb-24 03:11N 33°43' W 118°16'0 0.0
2018-Feb-24 02:52N 33°43' W 118°16'0 0.0
2018-Feb-24 02:29N 33°43' W 118°16'0 0.0
2018-Feb-24 01:54N 33°43' W 118°16'0 0.0
2018-Feb-24 01:30N 33°43' W 118°16'0 0.0
2018-Feb-24 01:00N 33°43' W 118°16'0 0.0
2018-Feb-24 00:30N 33°43' W 118°16'0 0.0
2018-Feb-24 00:00N 33°43' W 118°16'0 0.0
2018-Feb-23 23:30N 33°43' W 118°16'0 0.0
2018-Feb-23 23:00N 33°43' W 118°16'0 0.0
2018-Feb-23 22:30N 33°43' W 118°16'0 0.0
2018-Feb-23 22:00N 33°43' W 118°16'0 0.0
2018-Feb-23 21:30N 33°43' W 118°16'0 0.0
2018-Feb-23 21:00N 33°43' W 118°16'0 0.0
2018-Feb-23 20:30N 33°43' W 118°16'0 0.0
2018-Feb-23 20:00N 33°43' W 118°16'0 0.0
2018-Feb-23 19:30N 33°43' W 118°16'0 0.0
2018-Feb-23 19:00N 33°43' W 118°16'0 0.0
2018-Feb-23 18:30N 33°43' W 118°16'0 0.0
2018-Feb-23 18:00N 33°43' W 118°16'0 0.0
2018-Feb-23 17:30N 33°43' W 118°16'0 0.0
2018-Feb-23 17:00N 33°43' W 118°16'0 0.0
2018-Feb-23 16:30N 33°43' W 118°16'0 0.0
2018-Feb-23 16:00N 33°43' W 118°16'0 0.0
2018-Feb-23 15:30N 33°43' W 118°16'0 0.0
2018-Feb-23 15:00N 33°43' W 118°16'0 0.0
2018-Feb-23 14:30N 33°43' W 118°16'0 0.0
2018-Feb-23 13:41N 33°43' W 118°16'1 4.7
2018-Feb-23 13:26N 33°43' W 118°15'1 1.2
2018-Feb-23 12:29N 33°43' W 118°16'1 2.1
2018-Feb-23 12:00N 33°43' W 118°15'1 1.9
2018-Feb-23 11:30N 33°43' W 118°16'0 0.0
2018-Feb-23 10:57N 33°43' W 118°16'0 0.0
2018-Feb-23 10:24N 33°43' W 118°16'0 0.0
2018-Feb-23 09:55N 33°43' W 118°16'0 0.1
2018-Feb-23 06:44N 33°43' W 118°16'2 0.8
2018-Feb-23 04:03N 33°41' W 118°15'1 6.7
2018-Feb-23 03:50N 33°43' W 118°15'0 0.3
2018-Feb-23 03:24N 33°43' W 118°15'1 1.3
2018-Feb-23 02:39N 33°43' W 118°16'0 0.6
2018-Feb-23 02:13N 33°43' W 118°16'0 0.9
2018-Feb-23 02:00N 33°43' W 118°16'0 0.5
2018-Feb-23 01:30N 33°43' W 118°16'0 0.6
2018-Feb-23 01:00N 33°43' W 118°16'0 0.0
2018-Feb-23 00:30N 33°43' W 118°16'0 0.0
2018-Feb-23 00:00N 33°43' W 118°16'0 0.0
2018-Feb-22 23:30N 33°43' W 118°16'0 0.0
2018-Feb-22 23:00N 33°43' W 118°16'3 5.1
2018-Feb-22 22:31N 33°41' W 118°15'3 4.8
2018-Feb-22 21:59N 33°43' W 118°16'0 0.0
2018-Feb-22 21:30N 33°43' W 118°16'0 0.0
2018-Feb-22 21:00N 33°43' W 118°16'0 0.0
2018-Feb-22 20:30N 33°43' W 118°16'0 0.0
2018-Feb-22 20:00N 33°43' W 118°16'0 0.0
2018-Feb-22 19:30N 33°43' W 118°16'0 0.0
2018-Feb-22 19:00N 33°43' W 118°16'1 1.1
2018-Feb-22 18:30N 33°44' W 118°17'1 1.1
2018-Feb-22 18:00N 33°43' W 118°16'0 0.0
2018-Feb-22 17:30N 33°43' W 118°16'0 0.0
2018-Feb-22 16:48N 33°43' W 118°16'0 0.0
2018-Feb-22 16:30N 33°43' W 118°16'0 0.0
2018-Feb-22 16:00N 33°43' W 118°16'0 0.0
2018-Feb-22 15:30N 33°43' W 118°16'1 1.4
2018-Feb-22 15:00N 33°43' W 118°16'1 1.4
2018-Feb-22 14:28N 33°43' W 118°16'0 0.0
2018-Feb-22 13:32N 33°43' W 118°16'010.7
2018-Feb-22 13:30N 33°43' W 118°16'1 2.5
2018-Feb-22 13:00N 33°42' W 118°15'1 1.8
2018-Feb-22 12:13N 33°43' W 118°16'2 4.4
2018-Feb-22 11:48N 33°42' W 118°15'2 4.9
2018-Feb-22 11:23N 33°43' W 118°16'0 0.0
2018-Feb-22 10:59N 33°43' W 118°16'0 0.0
2018-Feb-22 09:05N 33°43' W 118°16'0 0.0
2018-Feb-22 04:12N 33°43' W 118°16'0 0.0
2018-Feb-22 02:01N 33°43' W 118°16'0 9.3
2018-Feb-22 01:59N 33°43' W 118°16'0 0.8
2018-Feb-22 01:28N 33°43' W 118°16'0 0.0
2018-Feb-22 01:00N 33°43' W 118°16'0 0.0
2018-Feb-22 00:30N 33°43' W 118°16'0 0.0
2018-Feb-22 00:00N 33°43' W 118°16'0 0.0
2018-Feb-21 23:30N 33°43' W 118°16'0 0.0
2018-Feb-21 23:00N 33°43' W 118°16'0 0.0
2018-Feb-21 22:30N 33°43' W 118°16'2 4.2
2018-Feb-21 22:00N 33°42' W 118°15'2 4.2
2018-Feb-21 21:31N 33°43' W 118°16'0 0.0
2018-Feb-21 21:00N 33°43' W 118°16'510.7
2018-Feb-21 20:30N 33°38' W 118°14'510.3
2018-Feb-21 19:59N 33°43' W 118°16'0 0.0
2018-Feb-21 19:30N 33°43' W 118°16'0 0.0
2018-Feb-21 18:58N 33°43' W 118°16'0 0.0
2018-Feb-21 18:30N 33°43' W 118°16'0 0.0
2018-Feb-21 18:00N 33°43' W 118°16'0 0.0
2018-Feb-21 17:30N 33°43' W 118°16'0 0.0
2018-Feb-21 17:00N 33°43' W 118°16'0 0.0
2018-Feb-21 16:30N 33°43' W 118°16'0 0.0
2018-Feb-21 16:00N 33°43' W 118°16'0 0.0
2018-Feb-21 15:30N 33°43' W 118°16'0 0.0
2018-Feb-21 15:00N 33°43' W 118°16'0 0.0
2018-Feb-21 14:30N 33°43' W 118°16'1 2.1
2018-Feb-21 14:00N 33°43' W 118°15'0 0.0
2018-Feb-21 13:30N 33°43' W 118°15'1 0.0
2018-Feb-21 02:20N 33°43' W 118°16'1 2.7
2018-Feb-21 02:00N 33°42' W 118°15'1 2.3
2018-Feb-21 01:30N 33°43' W 118°16'1 2.0
2018-Feb-21 01:00N 33°43' W 118°15'1 2.5
2018-Feb-21 00:30N 33°43' W 118°16'1 1.3
2018-Feb-21 00:00N 33°43' W 118°16'1 1.3
2018-Feb-20 23:30N 33°43' W 118°16'0 0.0
2018-Feb-20 23:00N 33°43' W 118°16'3 6.0
2018-Feb-20 22:31N 33°41' W 118°14'1 1.5
2018-Feb-20 22:01N 33°40' W 118°14'4 7.3
2018-Feb-20 21:30N 33°43' W 118°16'0 0.0
2018-Feb-20 21:00N 33°43' W 118°16'0 0.0
2018-Feb-20 20:29N 33°43' W 118°16'0 0.0
2018-Feb-20 20:00N 33°43' W 118°16'0 0.0
2018-Feb-20 19:30N 33°43' W 118°16'0 0.0
2018-Feb-20 19:00N 33°43' W 118°16'0 0.0
2018-Feb-20 18:30N 33°43' W 118°16'0 0.0
2018-Feb-20 18:00N 33°43' W 118°16'0 0.0
2018-Feb-20 17:30N 33°43' W 118°16'0 0.0
2018-Feb-20 17:00N 33°43' W 118°16'0 0.0
2018-Feb-20 16:30N 33°43' W 118°16'0 0.0
2018-Feb-20 16:00N 33°43' W 118°16'0 0.0
2018-Feb-20 15:30N 33°43' W 118°16'0 0.0
2018-Feb-20 15:00N 33°43' W 118°16'0 0.0
2018-Feb-20 14:30N 33°43' W 118°16'0 0.0
2018-Feb-20 13:53N 33°43' W 118°16'0 0.0
2018-Feb-20 13:30N 33°43' W 118°16'0 0.0
2018-Feb-20 13:00N 33°43' W 118°16'0 0.0
2018-Feb-20 12:22N 33°43' W 118°16'0 0.0
2018-Feb-20 02:11N 33°43' W 118°16'0 0.0
2018-Feb-20 01:48N 33°43' W 118°16'0 0.0
2018-Feb-20 01:30N 33°43' W 118°16'0 0.0
2018-Feb-20 01:00N 33°43' W 118°16'0 0.0
2018-Feb-20 00:30N 33°43' W 118°16'0 0.0
2018-Feb-20 00:00N 33°43' W 118°16'0 0.0
2018-Feb-19 23:30N 33°43' W 118°16'0 0.0
2018-Feb-19 23:00N 33°43' W 118°16'0 0.0
2018-Feb-19 22:30N 33°43' W 118°16'0 0.0
2018-Feb-19 22:00N 33°43' W 118°16'0 0.0
2018-Feb-19 21:30N 33°43' W 118°16'0 0.0
2018-Feb-19 21:00N 33°43' W 118°16'0 0.0
2018-Feb-19 20:30N 33°43' W 118°16'0 0.0
2018-Feb-19 20:00N 33°43' W 118°16'0 0.0
2018-Feb-19 19:30N 33°43' W 118°16'0 0.0
2018-Feb-19 19:00N 33°43' W 118°16'0 0.0
2018-Feb-19 18:30N 33°43' W 118°16'0 0.0
2018-Feb-19 18:00N 33°43' W 118°16'0 0.0
2018-Feb-19 17:30N 33°43' W 118°16'0 0.0
2018-Feb-19 17:00N 33°43' W 118°16'0 0.0
2018-Feb-19 16:30N 33°43' W 118°16'0 0.0
2018-Feb-19 16:00N 33°43' W 118°16'0 0.0
2018-Feb-19 15:30N 33°43' W 118°16'0 0.0
2018-Feb-19 15:00N 33°43' W 118°16'0 0.0
2018-Feb-19 14:30N 33°43' W 118°16'0 0.0
2018-Feb-19 13:54N 33°43' W 118°16'0 0.0
2018-Feb-19 12:50N 33°43' W 118°16'0 0.0
2018-Feb-19 12:26N 33°43' W 118°16'0 0.0
2018-Feb-19 11:22N 33°43' W 118°16'0 0.0
2018-Feb-19 10:49N 33°43' W 118°16'0 0.0
2018-Feb-19 10:22N 33°43' W 118°16'0 0.0
2018-Feb-19 09:53N 33°43' W 118°16'0 0.0
2018-Feb-19 09:28N 33°43' W 118°16'0 0.0
2018-Feb-19 08:58N 33°43' W 118°16'0 0.0
2018-Feb-19 08:21N 33°43' W 118°16'0 0.0
2018-Feb-19 07:31N 33°43' W 118°16'0 0.0
2018-Feb-19 07:22N 33°43' W 118°16'0 0.0
2018-Feb-19 05:52N 33°43' W 118°16'0 0.0
2018-Feb-19 05:25N 33°43' W 118°16'0 0.0
2018-Feb-19 04:57N 33°43' W 118°16'0 0.0
2018-Feb-19 04:29N 33°43' W 118°16'0 0.0
2018-Feb-19 03:50N 33°43' W 118°16'0 0.0
2018-Feb-19 03:28N 33°43' W 118°16'0 0.0
2018-Feb-19 02:29N 33°43' W 118°16'0 0.0
2018-Feb-19 01:57N 33°43' W 118°16'0 0.0
2018-Feb-19 01:30N 33°43' W 118°16'0 0.0
2018-Feb-19 01:00N 33°43' W 118°16'0 0.0
2018-Feb-19 00:30N 33°43' W 118°16'0 0.0
2018-Feb-19 00:00N 33°43' W 118°16'0 0.0
2018-Feb-18 23:30N 33°43' W 118°16'0 0.0
2018-Feb-18 23:00N 33°43' W 118°16'0 0.0
2018-Feb-18 22:30N 33°43' W 118°16'0 0.0
2018-Feb-18 22:00N 33°43' W 118°16'0 0.0
2018-Feb-18 21:30N 33°43' W 118°16'0 0.0
2018-Feb-18 21:00N 33°43' W 118°16'0 0.0
2018-Feb-18 20:30N 33°43' W 118°16'0 0.0
2018-Feb-18 20:00N 33°43' W 118°16'0 0.0
2018-Feb-18 19:30N 33°43' W 118°16'0 0.0
2018-Feb-18 19:00N 33°43' W 118°16'0 0.0
2018-Feb-18 18:30N 33°43' W 118°16'0 0.0
2018-Feb-18 18:00N 33°43' W 118°16'0 0.0
2018-Feb-18 17:30N 33°43' W 118°16'0 0.0
2018-Feb-18 17:00N 33°43' W 118°16'0 0.0
2018-Feb-18 16:30N 33°43' W 118°16'0 0.0
2018-Feb-18 16:00N 33°43' W 118°16'0 0.0
2018-Feb-18 15:30N 33°43' W 118°16'0 0.0
2018-Feb-18 15:00N 33°43' W 118°16'0 0.0
2018-Feb-18 14:30N 33°43' W 118°16'0 0.0
2018-Feb-18 14:00N 33°43' W 118°16'0 0.0
2018-Feb-18 13:26N 33°43' W 118°16'0 0.0
2018-Feb-18 13:00N 33°43' W 118°16'0 0.0
2018-Feb-18 12:26N 33°43' W 118°16'0 0.0
2018-Feb-18 11:57N 33°43' W 118°16'0 0.0
2018-Feb-18 11:28N 33°43' W 118°16'0 0.0
2018-Feb-18 10:46N 33°43' W 118°16'0 0.0
2018-Feb-18 10:10N 33°43' W 118°16'0 0.0
2018-Feb-18 09:54N 33°43' W 118°16'0 0.0
2018-Feb-18 09:19N 33°43' W 118°16'0 0.0
2018-Feb-18 08:47N 33°43' W 118°16'0 0.0
2018-Feb-18 08:19N 33°43' W 118°16'0 0.0
2018-Feb-18 08:00N 33°43' W 118°16'0 0.0
2018-Feb-18 06:01N 33°43' W 118°16'0 0.0
2018-Feb-18 05:42N 33°43' W 118°16'0 0.0
2018-Feb-18 05:20N 33°43' W 118°16'0 0.0
2018-Feb-18 04:15N 33°43' W 118°16'0 0.0
2018-Feb-18 03:58N 33°43' W 118°16'0 0.0
2018-Feb-18 01:52N 33°43' W 118°16'0 0.0
2018-Feb-18 01:30N 33°43' W 118°16'0 0.0
2018-Feb-18 01:00N 33°43' W 118°16'0 0.0
2018-Feb-18 00:30N 33°43' W 118°16'0 0.0
2018-Feb-17 23:59N 33°43' W 118°16'0 0.0
2018-Feb-17 23:30N 33°43' W 118°16'0 0.0
2018-Feb-17 23:00N 33°43' W 118°16'0 0.0
2018-Feb-17 22:30N 33°43' W 118°16'0 0.0
2018-Feb-17 22:00N 33°43' W 118°16'0 0.0
2018-Feb-17 21:30N 33°43' W 118°16'0 0.0
2018-Feb-17 21:00N 33°43' W 118°16'0 0.0
2018-Feb-17 20:30N 33°43' W 118°16'0 0.0
2018-Feb-17 20:00N 33°43' W 118°16'0 0.0
2018-Feb-17 19:30N 33°43' W 118°16'0 0.0
2018-Feb-17 19:00N 33°43' W 118°16'0 0.0
2018-Feb-17 18:30N 33°43' W 118°16'0 0.0
2018-Feb-17 18:00N 33°43' W 118°16'0 0.0
2018-Feb-17 17:30N 33°43' W 118°16'0 0.0
2018-Feb-17 17:00N 33°43' W 118°16'0 0.0
2018-Feb-17 16:30N 33°43' W 118°16'0 0.0
2018-Feb-17 16:00N 33°43' W 118°16'0 0.0
2018-Feb-17 15:30N 33°43' W 118°16'0 0.0
2018-Feb-17 15:00N 33°43' W 118°16'0 0.0
2018-Feb-17 14:30N 33°43' W 118°16'0 0.0
2018-Feb-17 13:51N 33°43' W 118°16'0 0.0
2018-Feb-17 13:22N 33°43' W 118°16'0 0.0
2018-Feb-17 12:58N 33°43' W 118°16'0 0.0
2018-Feb-17 12:18N 33°43' W 118°16'0 0.0
2018-Feb-17 11:52N 33°43' W 118°16'0 0.0
2018-Feb-17 11:30N 33°43' W 118°16'0 0.0
2018-Feb-17 10:45N 33°43' W 118°16'0 0.0
2018-Feb-17 10:26N 33°43' W 118°16'0 0.0
2018-Feb-17 09:47N 33°43' W 118°16'0 0.0
2018-Feb-17 09:30N 33°43' W 118°16'0 0.0
2018-Feb-17 09:00N 33°43' W 118°16'0 0.0
2018-Feb-17 05:50N 33°43' W 118°16'0 0.0
2018-Feb-17 01:50N 33°43' W 118°16'0 0.0
2018-Feb-17 01:30N 33°43' W 118°16'0 0.0
2018-Feb-17 01:00N 33°43' W 118°16'0 0.0
2018-Feb-17 00:30N 33°43' W 118°16'0 0.0
2018-Feb-17 00:00N 33°43' W 118°16'0 0.0
2018-Feb-16 23:30N 33°43' W 118°16'0 0.0
2018-Feb-16 23:00N 33°43' W 118°16'0 0.0
2018-Feb-16 22:30N 33°43' W 118°16'0 0.0
2018-Feb-16 22:00N 33°43' W 118°16'0 0.0
2018-Feb-16 21:30N 33°43' W 118°16'0 0.0
2018-Feb-16 21:00N 33°43' W 118°16'0 0.0
2018-Feb-16 20:30N 33°43' W 118°16'0 0.0
2018-Feb-16 20:00N 33°43' W 118°16'0 0.0
2018-Feb-16 19:30N 33°43' W 118°16'0 0.0
2018-Feb-16 19:00N 33°43' W 118°16'0 0.0
2018-Feb-16 18:30N 33°43' W 118°16'0 0.0
2018-Feb-16 18:00N 33°43' W 118°16'0 0.0
2018-Feb-16 17:30N 33°43' W 118°16'0 0.0
2018-Feb-16 17:00N 33°43' W 118°16'0 0.0
2018-Feb-16 16:30N 33°43' W 118°16'0 0.0
2018-Feb-16 16:00N 33°43' W 118°16'0 0.0
2018-Feb-16 15:30N 33°43' W 118°16'0 0.0
2018-Feb-16 15:00N 33°43' W 118°16'0 0.0
2018-Feb-16 14:30N 33°43' W 118°16'0 0.0
2018-Feb-16 13:41N 33°43' W 118°16'0 0.0
2018-Feb-16 06:43N 33°43' W 118°16'0 0.0
2018-Feb-16 06:15N 33°43' W 118°16'0 0.0
2018-Feb-16 05:54N 33°43' W 118°16'0 0.0
2018-Feb-16 05:30N 33°43' W 118°16'0 0.0
2018-Feb-16 04:52N 33°43' W 118°16'0 0.0
2018-Feb-16 04:30N 33°43' W 118°16'0 0.0
2018-Feb-16 04:00N 33°43' W 118°16'0 0.0
2018-Feb-16 03:12N 33°43' W 118°16'0 0.0
2018-Feb-16 02:59N 33°43' W 118°16'0 0.0
2018-Feb-16 02:27N 33°43' W 118°16'0 0.0
2018-Feb-16 01:48N 33°43' W 118°16'0 0.0
2018-Feb-16 01:30N 33°43' W 118°16'0 0.0
2018-Feb-16 01:00N 33°43' W 118°16'0 0.0
2018-Feb-16 00:30N 33°43' W 118°16'0 0.0
2018-Feb-16 00:00N 33°43' W 118°16'0 0.0
2018-Feb-15 23:30N 33°43' W 118°16'0 0.0
2018-Feb-15 23:00N 33°43' W 118°16'0 0.0
2018-Feb-15 22:30N 33°43' W 118°16'0 0.0
2018-Feb-15 22:00N 33°43' W 118°16'0 0.0
2018-Feb-15 21:30N 33°43' W 118°16'0 0.0
2018-Feb-15 21:00N 33°43' W 118°16'0 0.0
2018-Feb-15 20:30N 33°43' W 118°16'0 0.0
2018-Feb-15 20:00N 33°43' W 118°16'0 0.0
2018-Feb-15 19:30N 33°43' W 118°16'0 0.0
2018-Feb-15 19:00N 33°43' W 118°16'0 0.0
2018-Feb-15 18:28N 33°43' W 118°16'0 0.0
2018-Feb-15 18:00N 33°43' W 118°16'0 0.0
2018-Feb-15 17:30N 33°43' W 118°16'0 0.0
2018-Feb-15 17:00N 33°43' W 118°16'0 0.0
2018-Feb-15 16:30N 33°43' W 118°16'0 0.0
2018-Feb-15 15:59N 33°43' W 118°16'0 0.0
2018-Feb-15 15:30N 33°43' W 118°16'0 0.0
2018-Feb-15 15:00N 33°43' W 118°16'0 0.0
2018-Feb-15 14:30N 33°43' W 118°16'0 0.0
2018-Feb-15 14:00N 33°43' W 118°16'0 0.0
2018-Feb-15 13:30N 33°43' W 118°16'0 0.0
2018-Feb-15 12:56N 33°43' W 118°16'0 0.0
2018-Feb-15 12:21N 33°43' W 118°16'0 0.0
2018-Feb-15 12:00N 33°43' W 118°16'0 0.0
2018-Feb-15 11:28N 33°43' W 118°16'0 0.0
2018-Feb-15 10:58N 33°43' W 118°16'0 0.0
2018-Feb-15 09:45N 33°43' W 118°16'0 0.0
2018-Feb-15 09:27N 33°43' W 118°16'0 0.0
2018-Feb-15 08:57N 33°43' W 118°16'0 0.0
2018-Feb-15 08:30N 33°43' W 118°16'0 0.0
2018-Feb-15 07:51N 33°43' W 118°16'0 0.0
2018-Feb-15 07:30N 33°43' W 118°16'0 0.0
2018-Feb-15 06:03N 33°43' W 118°16'0 0.1
2018-Feb-15 06:00N 33°43' W 118°16'0 0.0
2018-Feb-15 05:29N 33°43' W 118°16'0 0.0
2018-Feb-15 04:58N 33°43' W 118°16'0 0.0
2018-Feb-15 04:30N 33°43' W 118°16'0 0.0
2018-Feb-15 04:00N 33°43' W 118°16'0 0.0
2018-Feb-15 02:56N 33°43' W 118°16'0 0.0
2018-Feb-15 02:07N 33°43' W 118°16'0 0.0
2018-Feb-15 01:48N 33°43' W 118°16'0 0.0
2018-Feb-15 01:30N 33°43' W 118°16'0 0.0
2018-Feb-15 01:00N 33°43' W 118°16'0 0.0
2018-Feb-15 00:30N 33°43' W 118°16'0 0.0
2018-Feb-15 00:00N 33°43' W 118°16'0 0.0
2018-Feb-14 23:30N 33°43' W 118°16'0 0.0
2018-Feb-14 23:00N 33°43' W 118°16'0 0.0
2018-Feb-14 22:30N 33°43' W 118°16'0 0.0
2018-Feb-14 22:00N 33°43' W 118°16'0 0.0
2018-Feb-14 21:30N 33°43' W 118°16'0 0.0
2018-Feb-14 21:00N 33°43' W 118°16'0 0.0
2018-Feb-14 20:30N 33°43' W 118°16'0 0.0
2018-Feb-14 20:00N 33°43' W 118°16'0 0.0
2018-Feb-14 19:30N 33°43' W 118°16'0 0.0
2018-Feb-14 19:00N 33°43' W 118°16'0 0.0
2018-Feb-14 18:30N 33°43' W 118°16'  

Dump ship's entire track history